الصفحة الرئيسية
METAR-TAF:

METAR-TAF

مطار :

Maun, بتسوانا

دائرة عرض: 19-59S, خط طول: 023-25E, ارتفاع: 945 متر

مراقبة الطقس الحالي

تاريخ ووقت الإصدار 51 دقيقة قبل الساعة 15:00UTC
ريح 3 عقدة من الشمال/الشمال الشرقي
درجة الحرارة 32°درجة مئوية
الرطوبة 36%
ضغط 1016 hPa
الرؤية 10 كم أو أكثر
غيوم قليلة على ارتفاع 3000 قدم

METAR: FBMN 241500Z 02003KT 9999 FEW030 32/15 Q1016

زمن: 17:51 (15:51 UTC)

توقعات

تاريخ ووقت الإصدار 3ساعات و 51 دقيقة قبل الساعة 12:00UTC
التوقعات صالحة من24 الساعة 15 UTC إلى 24 الساعة 24 UTC
ريح 2 عقدةمن اتجاهات متغيرة
الرؤية 10 كم أو أكثر
الغيوم لا تقل 1500 م ولا وجود لمزنة ركامية السحاب الأسود

TAF: FBMN 241200Z 2415/2424 VRB02KT CAVOK

أرصاد الطقس والتوقعات من أكثر من 4000 مطار (تقارير الطقس للمطار METAR والتنبؤ بالطقس بالمطارTAF).

المحطات المتاحة هي النقط الصفراء والحمراء على الخريطة.

حرك المؤشر فوق النقطة لمعرفة اسم المحطة.

ثم انقر لمعرفة أرصاد وتوقعات الطقس.

لتغيير الخارطة: اضغط على الأزرار الخضراء مع رمز الصليب الأسود للتكبير. على الزر الأخضر مع شرطة للتصغير، أو على الأسهم الخضراء للخرائط المجاورة.


METAR-TAF: